South Lyme, Connecticut
Current Conditions -  °F | °C
As of 3:56 PM on Friday 31 Oct 2014 (Local Time) from KGON Reporting Station
Overcast Overcast  
Wind Chill: 53°   Ceiling: 4200
Heat Index: 53°   Visibility: 10mi
Dew Point: 42°   Wind: 12mph
Humidity: 66%   Direction: 50°NE
Pressure: 29.92"   Gusts: NA
Location:  41.31°N, 72.26°W
Report Text: KGON 311956Z 05010KT 10SM SCT033 OVC042 12/06 A2992 RMK AO2 SLP130 T01170056
Loading
Personal Weather Stations






























Interactive Weather Map
Tropical Storm Tracking
New forecast layout! Learn more

10-Day Weather Forecast

Advertisements
Track Severe Weather on mobile